Time;durP1;ratioP1;P1;durP2;ratioP2;P2;SDS_P1;SDS_P2;PMS_P1;PMS_P2;Temp;Humidity;BMP_temperature;BMP_pressure;BME280_temperature;BME280_humidity;BME280_pressure;Samples;Min_cycle;Max_cycle;Signal;HPM_P1;HPM_P2
2021/01/28 00:02:08;;;;;;;0.70;0.70;;;;;;;0.83;87.44;96625.28;299395;209;63009;-65
2021/01/28 00:07:09;;;;;;;0.70;0.70;;;;;;;0.80;87.76;96613.22;299395;253;63005;-66
2021/01/28 00:12:10;;;;;;;0.80;0.80;;;;;;;0.76;87.89;96620.09;299395;197;63009;-65
2021/01/28 00:17:11;;;;;;;0.80;0.80;;;;;;;0.71;87.99;96611.16;299395;202;63004;-65
2021/01/28 00:22:12;;;;;;;0.80;0.80;;;;;;;0.75;88.25;96604.28;299395;299;63009;-63
2021/01/28 00:27:13;;;;;;;0.80;0.80;;;;;;;0.83;87.98;96604.75;299395;293;63005;-63
2021/01/28 00:32:14;;;;;;;0.80;0.80;;;;;;;0.87;87.97;96605.06;299395;255;63008;-63
2021/01/28 00:37:15;;;;;;;0.80;0.80;;;;;;;0.86;87.58;96592.78;299395;214;63004;-56
2021/01/28 00:42:16;;;;;;;0.80;0.80;;;;;;;0.86;87.77;96606.12;299395;273;63009;-66
2021/01/28 00:47:17;;;;;;;0.80;0.80;;;;;;;0.92;87.47;96597.16;299395;221;63004;-65
2021/01/28 00:52:18;;;;;;;0.80;0.80;;;;;;;0.96;87.01;96591.09;299394;266;64009;-64
2021/01/28 00:57:20;;;;;;;0.80;0.80;;;;;;;0.89;87.63;96581.63;299395;202;63005;-65
2021/01/28 01:02:20;;;;;;;0.70;0.70;;;;;;;0.93;87.62;96583.56;299395;215;63021;-56
2021/01/28 01:07:21;;;;;;;0.80;0.80;;;;;;;0.98;87.24;96566.81;299395;214;63004;-63
2021/01/28 01:12:22;;;;;;;0.80;0.80;;;;;;;0.94;87.36;96552.31;299395;225;63009;-64
2021/01/28 01:17:23;;;;;;;0.70;0.70;;;;;;;1.01;87.03;96555.66;299394;218;64009;-63
2021/01/28 01:22:24;;;;;;;0.80;0.80;;;;;;;1.00;87.10;96554.03;299395;227;63018;-63
2021/01/28 01:27:25;;;;;;;0.80;0.80;;;;;;;0.96;87.10;96558.25;299395;206;63005;-66
2021/01/28 01:32:26;;;;;;;0.80;0.80;;;;;;;0.99;87.60;96565.78;299395;224;63009;-62
2021/01/28 01:37:27;;;;;;;0.80;0.80;;;;;;;0.97;87.50;96565.22;299395;204;63004;-65
2021/01/28 01:42:28;;;;;;;0.70;0.70;;;;;;;0.95;87.55;96560.09;299395;224;63017;-64
2021/01/28 01:47:47;;;;;;;0.70;0.70;;;;;;;1.01;87.21;96547.66;299395;236;63005;-63
2021/01/28 01:52:48;;;;;;;0.80;0.80;;;;;;;1.03;87.59;96534.84;299395;229;63009;-64
2021/01/28 01:57:50;;;;;;;0.80;0.80;;;;;;;1.04;87.47;96520.41;299395;210;63010;-63
2021/01/28 02:02:56;;;;;;;0.70;0.70;;;;;;;1.05;87.54;96518.56;299395;250;63009;-63
2021/01/28 02:07:58;;;;;;;0.77;0.77;;;;;;;1.14;86.72;96504.56;299395;197;63004;-63
2021/01/28 02:13:01;;;;;;;0.80;0.80;;;;;;;1.21;86.40;96494.53;299395;216;63009;-63
2021/01/28 02:18:04;;;;;;;0.70;0.70;;;;;;;1.12;86.83;96484.47;299395;243;63005;-64
2021/01/28 02:23:19;;;;;;;0.80;0.80;;;;;;;1.16;86.62;96480.28;299395;221;63009;-65
2021/01/28 02:28:20;;;;;;;0.70;0.70;;;;;;;1.19;87.18;96477.13;299417;196;63010;-54
2021/01/28 02:33:59;;;;;;;0.70;0.70;;;;;;;1.21;86.79;96467.81;299395;277;63019;-63
2021/01/28 02:39:01;;;;;;;0.70;0.70;;;;;;;1.25;86.71;96450.22;299394;216;64004;-61
2021/01/28 02:44:04;;;;;;;0.70;0.70;;;;;;;1.25;87.11;96452.91;299395;229;63009;-63
2021/01/28 02:49:05;;;;;;;0.80;0.80;;;;;;;1.32;86.64;96442.88;299395;246;63005;-56
2021/01/28 02:54:06;;;;;;;0.70;0.70;;;;;;;1.36;86.64;96447.72;299395;213;63008;-63
2021/01/28 02:59:08;;;;;;;0.70;0.70;;;;;;;1.36;86.61;96447.72;299395;253;63004;-56
2021/01/28 03:04:10;;;;;;;0.70;0.70;;;;;;;1.34;86.71;96435.41;299395;215;63009;-61
2021/01/28 03:09:11;;;;;;;0.80;0.80;;;;;;;1.31;86.92;96425.22;299395;226;63004;-63
2021/01/28 03:14:12;;;;;;;0.70;0.70;;;;;;;1.37;87.05;96418.06;299395;245;63009;-64
2021/01/28 03:19:13;;;;;;;0.80;0.80;;;;;;;1.39;86.90;96404.47;299395;202;63021;-64
2021/01/28 03:24:18;;;;;;;0.80;0.80;;;;;;;1.32;87.08;96405.44;299395;257;63009;-63
2021/01/28 03:29:19;;;;;;;0.80;0.80;;;;;;;1.34;87.12;96392.66;299416;214;64009;-64
2021/01/28 03:34:20;;;;;;;0.70;0.70;;;;;;;1.36;87.46;96391.59;299395;274;63009;-64
2021/01/28 03:39:21;;;;;;;0.80;0.80;;;;;;;1.34;87.19;96392.66;299395;231;63005;-62
2021/01/28 03:44:22;;;;;;;0.70;0.70;;;;;;;1.39;87.36;96396.44;299395;229;63004;-63
2021/01/28 03:49:23;;;;;;;0.80;0.80;;;;;;;1.36;87.37;96381.72;299395;226;63005;-62
2021/01/28 03:54:24;;;;;;;0.70;0.70;;;;;;;1.43;87.70;96346.75;299395;260;63009;-64
2021/01/28 03:59:25;;;;;;;0.70;0.70;;;;;;;1.41;87.63;96332.81;299395;253;63004;-63
2021/01/28 04:04:26;;;;;;;0.70;0.70;;;;;;;1.55;88.06;96312.69;299395;248;63009;-62
2021/01/28 04:09:27;;;;;;;0.70;0.70;;;;;;;1.54;88.36;96311.87;299395;219;63005;-63
2021/01/28 04:14:28;;;;;;;0.70;0.70;;;;;;;1.54;88.74;96301.19;299395;269;63009;-64
2021/01/28 04:19:29;;;;;;;0.70;0.70;;;;;;;1.56;88.55;96291.03;299395;221;63000;-62
2021/01/28 04:24:30;;;;;;;0.80;0.80;;;;;;;1.59;87.98;96271.84;299395;252;63009;-64
2021/01/28 04:29:31;;;;;;;0.70;0.70;;;;;;;1.50;88.33;96259.16;299395;237;63004;-68
2021/01/28 04:34:32;;;;;;;0.80;0.80;;;;;;;1.64;88.47;96249.69;299395;301;63009;-65
2021/01/28 04:39:37;;;;;;;0.70;0.70;;;;;;;1.63;88.22;96237.38;299395;291;63005;-65
2021/01/28 04:44:39;;;;;;;0.70;0.70;;;;;;;1.67;87.66;96225.12;299395;270;63009;-63
2021/01/28 04:49:44;;;;;;;0.80;0.80;;;;;;;1.57;87.74;96225.00;299395;203;63005;-63
2021/01/28 04:54:45;;;;;;;0.70;0.70;;;;;;;1.63;88.15;96224.00;299395;224;63009;-63
2021/01/28 04:59:51;;;;;;;0.70;0.70;;;;;;;1.61;87.49;96215.44;299395;203;63011;-62
2021/01/28 05:04:58;;;;;;;0.70;0.70;;;;;;;1.55;88.06;96200.38;299395;256;63013;-64
2021/01/28 05:10:39;;;;;;;0.70;0.70;;;;;;;1.55;87.50;96184.34;299395;231;63005;-63
2021/01/28 05:15:42;;;;;;;0.70;0.70;;;;;;;1.64;87.69;96164.12;299395;203;63009;-65
2021/01/28 05:20:45;;;;;;;0.70;0.70;;;;;;;1.61;87.50;96154.72;299395;248;63004;-64
2021/01/28 05:25:46;;;;;;;0.70;0.70;;;;;;;1.64;87.32;96154.22;299395;203;63009;-65
2021/01/28 05:30:47;;;;;;;0.70;0.70;;;;;;;1.67;86.76;96148.38;299394;260;64005;-64
2021/01/28 05:36:05;;;;;;;0.70;0.70;;;;;;;1.68;86.56;96133.12;299395;254;63009;-64
2021/01/28 05:41:09;;;;;;;0.70;0.70;;;;;;;1.65;86.75;96130.97;299395;203;63005;-64
2021/01/28 05:46:30;;;;;;;0.70;0.70;;;;;;;1.71;86.26;96113.91;299417;271;63009;-65
2021/01/28 05:51:45;;;;;;;1.58;1.55;;;;;;;1.81;86.31;96111.28;299395;227;63004;-68
2021/01/28 05:57:07;;;;;;;0.80;0.80;;;;;;;1.80;86.50;96096.31;299417;196;63009;-64
2021/01/28 06:02:54;;;;;;;0.70;0.70;;;;;;;1.66;86.81;96090.59;299373;278;63005;-63
2021/01/28 06:08:14;;;;;;;;;;;;;;;1.65;87.24;96082.84;299996;983;6004;-64
2021/01/28 06:14:01;;;;;;;0.75;0.75;;;;;;;1.64;87.53;96078.53;299400;198;63009;-67
2021/01/28 06:19:50;;;;;;;0.77;0.77;;;;;;;1.81;87.63;96060.47;299416;245;64005;-65
2021/01/28 06:25:24;;;;;;;0.80;0.80;;;;;;;1.74;87.58;96051.84;299395;217;63009;-62
2021/01/28 06:31:06;;;;;;;0.80;0.80;;;;;;;1.89;88.18;96030.56;299395;208;63005;-65
2021/01/28 06:37:23;;;;;;;0.73;0.73;;;;;;;1.82;88.79;96027.31;299395;202;63009;-69
2021/01/28 06:42:36;;;;;;;0.70;0.70;;;;;;;1.77;89.54;96015.75;299395;203;63004;-65
2021/01/28 06:47:59;;;;;;;0.80;0.80;;;;;;;1.96;89.48;96009.75;299395;241;63009;-69
2021/01/28 06:53:21;;;;;;;0.70;0.70;;;;;;;1.98;89.33;96001.47;299395;210;63005;-65
2021/01/28 06:59:13;;;;;;;0.70;0.70;;;;;;;2.06;89.42;95986.78;299395;211;63009;-65
2021/01/28 07:04:39;;;;;;;0.70;0.70;;;;;;;2.09;89.40;95986.25;299395;210;63004;-67
2021/01/28 07:10:06;;;;;;;0.70;0.70;;;;;;;2.13;89.11;95988.12;299418;233;63005;-67
2021/01/28 07:15:10;;;;;;;0.70;0.70;;;;;;;2.10;89.53;95985.19;299396;215;63009;-64
2021/01/28 07:20:34;;;;;;;0.70;0.70;;;;;;;1.98;89.55;95974.72;299418;218;63004;-71
2021/01/28 07:25:36;;;;;;;0.70;0.70;;;;;;;2.01;89.97;95964.28;299396;210;63005;-64
2021/01/28 07:30:44;;;;;;;1.00;1.00;;;;;;;2.14;89.82;95948.81;299396;311;63009;-63
2021/01/28 07:35:47;;;;;;;0.70;0.70;;;;;;;1.99;90.26;95941.53;299396;197;63004;-65
2021/01/28 07:41:04;;;;;;;0.70;0.70;;;;;;;2.01;90.33;95932.19;299396;196;63009;-65
2021/01/28 07:46:47;;;;;;;0.70;0.70;;;;;;;2.03;90.79;95918.53;299396;231;63005;-66
2021/01/28 07:51:50;;;;;;;0.70;0.70;;;;;;;2.08;90.99;95912.41;299397;240;63009;-54
2021/01/28 07:57:04;;;;;;;0.70;0.70;;;;;;;2.07;91.15;95897.41;299379;211;125004;-68
2021/01/28 08:02:31;;;;;;;0.70;0.70;;;;;;;2.08;91.26;95899.03;299397;199;63009;-55
2021/01/28 08:07:43;;;;;;;0.70;0.70;;;;;;;2.18;91.23;95882.97;299396;367;63018;-65
2021/01/28 08:12:53;;;;;;;0.80;0.80;;;;;;;2.14;91.20;95866.66;299396;205;63008;-57
2021/01/28 08:18:36;;;;;;;0.70;0.70;;;;;;;2.16;91.09;95869.06;299396;224;63004;-63
2021/01/28 08:23:39;;;;;;;0.70;0.70;;;;;;;2.23;91.28;95861.59;299396;238;63009;-62
2021/01/28 08:28:43;;;;;;;0.70;0.70;;;;;;;2.25;91.65;95846.87;299396;300;63005;-62
2021/01/28 08:33:48;;;;;;;0.70;0.70;;;;;;;2.34;91.27;95841.81;299418;228;63009;-61
2021/01/28 08:39:03;;;;;;;0.70;0.70;;;;;;;2.34;91.75;95831.09;299397;346;63000;-62
2021/01/28 08:44:10;;;;;;;0.70;0.70;;;;;;;2.43;91.15;95810.72;299396;215;63009;-62
2021/01/28 08:49:17;;;;;;;0.70;0.70;;;;;;;2.42;91.66;95793.09;299397;335;63004;-60
2021/01/28 08:54:25;;;;;;;0.70;0.70;;;;;;;2.53;91.33;95788.50;299396;202;63009;-61
2021/01/28 08:59:44;;;;;;;0.70;0.70;;;;;;;2.52;91.68;95771.66;299395;202;63005;-59
2021/01/28 09:04:52;;;;;;;0.70;0.70;;;;;;;2.67;91.52;95768.16;299395;202;63008;-59
2021/01/28 09:10:05;;;;;;;0.70;0.70;;;;;;;2.65;91.91;95760.41;299395;313;63004;-58
2021/01/28 09:15:32;;;;;;;0.70;0.70;;;;;;;2.67;91.58;95757.44;299395;202;63009;-60
2021/01/28 09:20:36;;;;;;;0.70;0.70;;;;;;;2.73;91.78;95734.94;299395;254;63005;-59
2021/01/28 09:25:40;;;;;;;0.70;0.70;;;;;;;2.69;91.74;95740.03;299417;197;63009;-60
2021/01/28 09:30:47;;;;;;;0.70;0.70;;;;;;;2.86;91.62;95733.56;299395;310;63005;-60
2021/01/28 09:36:15;;;;;;;0.70;0.70;;;;;;;2.89;91.53;95711.59;299395;286;63009;-61
2021/01/28 09:41:24;;;;;;;0.70;0.70;;;;;;;2.88;91.87;95710.78;299395;206;63009;-59
2021/01/28 09:46:30;;;;;;;0.70;0.70;;;;;;;2.92;91.64;95701.13;299395;294;63005;-70
2021/01/28 09:51:35;;;;;;;0.70;0.70;;;;;;;2.96;91.37;95690.66;299395;347;63009;-60
2021/01/28 09:56:37;;;;;;;0.70;0.70;;;;;;;2.97;91.44;95713.72;299395;202;63004;-60
2021/01/28 10:01:43;;;;;;;0.95;0.90;;;;;;;3.03;91.57;95717.97;299395;216;63009;-59
2021/01/28 10:06:44;;;;;;;0.80;0.80;;;;;;;3.04;91.87;95719.59;299395;199;63005;-61
2021/01/28 10:11:45;;;;;;;0.70;0.70;;;;;;;3.08;92.02;95717.97;299395;236;63008;-59
2021/01/28 10:16:46;;;;;;;0.70;0.70;;;;;;;3.14;91.55;95711.47;299395;198;63004;-66
2021/01/28 10:21:48;;;;;;;0.70;0.70;;;;;;;3.23;91.90;95717.87;299395;317;63009;-60
2021/01/28 10:26:49;;;;;;;0.70;0.70;;;;;;;3.25;91.93;95715.75;299395;268;63004;-58
2021/01/28 10:31:50;;;;;;;0.70;0.70;;;;;;;3.30;92.09;95723.75;299395;198;63009;-59
2021/01/28 10:36:52;;;;;;;0.70;0.70;;;;;;;3.50;91.84;95705.94;299395;304;63005;-60
2021/01/28 10:41:54;;;;;;;0.70;0.70;;;;;;;3.63;91.43;95697.31;299395;358;63008;-70
2021/01/28 10:46:59;;;;;;;0.70;0.70;;;;;;;3.64;91.35;95694.34;299395;217;63004;-60
2021/01/28 10:52:02;;;;;;;0.70;0.70;;;;;;;3.71;91.66;95686.00;299395;272;63009;-60
2021/01/28 10:57:04;;;;;;;0.70;0.70;;;;;;;3.81;91.40;95677.84;299395;359;63004;-60
2021/01/28 11:02:06;;;;;;;0.70;0.70;;;;;;;3.93;91.70;95664.09;299395;225;63009;-59
2021/01/28 11:07:07;;;;;;;0.70;0.70;;;;;;;4.04;91.09;95660.25;299395;271;63005;-59
2021/01/28 11:12:09;;;;;;;0.70;0.70;;;;;;;4.03;91.30;95639.88;299395;232;63008;-59
2021/01/28 11:17:11;;;;;;;0.85;0.85;;;;;;;4.09;90.89;95629.88;299395;212;63004;-57
2021/01/28 11:22:15;;;;;;;0.70;0.70;;;;;;;4.08;91.47;95618.34;299395;199;63009;-59
2021/01/28 11:27:17;;;;;;;0.80;0.80;;;;;;;4.13;91.94;95593.34;299417;261;63005;-60
2021/01/28 11:32:18;;;;;;;0.70;0.70;;;;;;;4.21;92.15;95588.13;299395;236;63009;-59
2021/01/28 11:37:19;;;;;;;0.70;0.70;;;;;;;4.44;91.29;95583.09;299395;204;63000;-61
2021/01/28 11:42:20;;;;;;;0.70;0.70;;;;;;;4.58;91.12;95573.25;299395;220;63009;-63
2021/01/28 11:47:21;;;;;;;0.70;0.70;;;;;;;4.70;90.11;95576.31;299395;230;63004;-61
2021/01/28 11:52:23;;;;;;;0.70;0.70;;;;;;;4.74;90.25;95573.88;299395;209;63009;-59
2021/01/28 11:57:24;;;;;;;0.70;0.70;;;;;;;4.75;90.35;95564.72;299395;231;63005;-58
2021/01/28 12:02:25;;;;;;;0.70;0.70;;;;;;;4.75;90.40;95564.72;299395;198;63009;-59
2021/01/28 12:07:26;;;;;;;0.70;0.70;;;;;;;4.85;91.19;95553.84;299395;205;63005;-58
2021/01/28 12:12:28;;;;;;;0.70;0.70;;;;;;;5.07;90.32;95543.31;299395;203;63009;-61
2021/01/28 12:17:29;;;;;;;0.70;0.70;;;;;;;5.22;90.05;95535.00;299395;278;63004;-63
2021/01/28 12:22:31;;;;;;;0.70;0.70;;;;;;;5.28;89.65;95539.22;299395;219;63009;-60
2021/01/28 12:27:32;;;;;;;0.70;0.70;;;;;;;5.39;89.70;95543.38;299395;316;63005;-61
2021/01/28 12:32:33;;;;;;;0.70;0.70;;;;;;;5.45;90.46;95530.66;299395;212;63009;-62
2021/01/28 12:37:35;;;;;;;0.70;0.70;;;;;;;5.66;89.24;95536.50;299395;223;63005;-68
2021/01/28 12:42:37;;;;;;;0.82;0.82;;;;;;;5.80;88.89;95520.41;299395;200;63009;-73
2021/01/28 12:47:38;;;;;;;0.70;0.70;;;;;;;5.92;88.95;95524.22;299395;204;63004;-73
2021/01/28 12:52:39;;;;;;;0.70;0.70;;;;;;;5.85;88.89;95523.81;299395;309;63009;-61
2021/01/28 12:57:40;;;;;;;0.70;0.70;;;;;;;5.92;89.63;95518.03;299395;203;63005;-62
2021/01/28 13:02:42;;;;;;;0.70;0.70;;;;;;;5.97;89.74;95524.12;299394;228;64013;-58
2021/01/28 13:07:42;;;;;;;0.70;0.70;;;;;;;6.07;89.77;95522.34;299395;332;63005;-69
2021/01/28 13:12:43;;;;;;;0.70;0.70;;;;;;;6.12;89.47;95523.06;299395;214;63009;-63
2021/01/28 13:17:49;;;;;;;0.70;0.70;;;;;;;6.36;89.85;95517.50;299395;218;63004;-60
2021/01/28 13:22:50;;;;;;;0.70;0.70;;;;;;;6.62;89.28;95504.28;299395;258;63022;-74
2021/01/28 13:27:52;;;;;;;0.70;0.70;;;;;;;6.80;88.95;95505.28;299395;237;63005;-62
2021/01/28 13:32:54;;;;;;;0.70;0.70;;;;;;;7.01;88.67;95522.59;299395;306;63008;-60
2021/01/28 13:37:57;;;;;;;0.60;0.60;;;;;;;7.07;88.33;95521.41;299395;227;63004;-60
2021/01/28 13:42:59;;;;;;;0.60;0.60;;;;;;;7.10;88.35;95531.59;299395;227;63009;-59
2021/01/28 13:48:03;;;;;;;0.60;0.60;;;;;;;7.26;87.81;95530.16;299395;212;63004;-61
2021/01/28 13:53:05;;;;;;;0.68;0.68;;;;;;;7.34;87.74;95548.28;299439;239;63009;-62
2021/01/28 13:58:07;;;;;;;0.70;0.70;;;;;;;7.36;88.22;95546.09;299395;213;63009;-58
2021/01/28 14:03:08;;;;;;;0.60;0.60;;;;;;;7.46;87.81;95533.47;299395;206;63008;-59
2021/01/28 14:08:09;;;;;;;0.60;0.60;;;;;;;7.62;87.47;95540.88;299395;198;63004;-60
2021/01/28 14:13:10;;;;;;;0.70;0.70;;;;;;;7.71;87.54;95552.56;299395;254;63009;-59
2021/01/28 14:18:15;;;;;;;0.60;0.60;;;;;;;7.73;87.41;95546.84;299395;222;63004;-65
2021/01/28 14:23:17;;;;;;;0.60;0.60;;;;;;;7.71;87.68;95547.16;299395;219;63009;-61
2021/01/28 14:28:18;;;;;;;0.60;0.60;;;;;;;7.75;87.76;95558.16;299395;221;63005;-74
2021/01/28 14:33:20;;;;;;;0.70;0.70;;;;;;;7.83;87.46;95554.72;299395;204;63009;-60
2021/01/28 14:38:22;;;;;;;0.70;0.70;;;;;;;7.67;88.53;95554.28;299395;220;63004;-60
2021/01/28 14:43:26;;;;;;;0.60;0.60;;;;;;;7.72;88.47;95547.97;299395;196;63009;-66
2021/01/28 14:48:28;;;;;;;0.60;0.60;;;;;;;7.91;87.79;95543.19;299395;272;63005;-62
2021/01/28 14:53:29;;;;;;;0.60;0.60;;;;;;;7.81;88.14;95546.12;299395;216;63009;-66
2021/01/28 14:58:31;;;;;;;0.60;0.60;;;;;;;7.85;87.97;95547.09;299395;265;63005;-65
2021/01/28 15:03:32;;;;;;;0.60;0.60;;;;;;;7.88;88.27;95562.69;299395;233;63009;-61
2021/01/28 15:08:34;;;;;;;0.65;0.65;;;;;;;7.92;88.13;95568.28;299395;206;63004;-65
2021/01/28 15:13:36;;;;;;;0.60;0.60;;;;;;;7.95;88.60;95565.75;299395;274;63009;-63
2021/01/28 15:18:38;;;;;;;0.70;0.70;;;;;;;7.96;88.65;95580.06;299395;255;63005;-61
2021/01/28 15:23:40;;;;;;;0.60;0.60;;;;;;;8.16;88.09;95594.97;299395;214;63009;-77
2021/01/28 15:28:43;;;;;;;0.60;0.60;;;;;;;8.30;87.38;95601.09;299395;244;63005;-70
2021/01/28 15:33:44;;;;;;;0.60;0.60;;;;;;;8.47;86.46;95605.81;299395;215;63009;-67
2021/01/28 15:38:46;;;;;;;0.60;0.60;;;;;;;8.57;86.26;95592.84;299395;244;63004;-60
2021/01/28 15:43:47;;;;;;;0.60;0.60;;;;;;;8.65;86.01;95600.19;299395;219;63009;-64
2021/01/28 15:48:48;;;;;;;0.60;0.60;;;;;;;8.53;86.71;95594.56;299395;203;63005;-60
2021/01/28 15:53:50;;;;;;;0.60;0.60;;;;;;;8.45;87.36;95616.94;299395;336;63008;-61
2021/01/28 15:58:51;;;;;;;0.60;0.60;;;;;;;8.49;87.58;95622.53;299395;270;63004;-70
2021/01/28 16:03:52;;;;;;;0.60;0.60;;;;;;;8.41;88.25;95613.25;299395;211;63009;-61
2021/01/28 16:08:53;;;;;;;0.60;0.60;;;;;;;8.31;88.78;95624.31;299395;216;63000;-61
2021/01/28 16:13:55;;;;;;;0.60;0.60;;;;;;;8.28;89.02;95619.53;299395;207;63009;-59
2021/01/28 16:18:56;;;;;;;0.70;0.70;;;;;;;8.39;87.96;95620.88;299395;208;63005;-57
2021/01/28 16:23:58;;;;;;;0.60;0.60;;;;;;;8.42;87.70;95631.06;299395;310;63009;-61
2021/01/28 16:29:00;;;;;;;0.60;0.60;;;;;;;8.44;87.33;95634.25;299395;213;63005;-61
2021/01/28 16:34:02;;;;;;;0.60;0.60;;;;;;;8.47;87.17;95620.13;299395;231;63009;-68
2021/01/28 16:39:05;;;;;;;0.65;0.65;;;;;;;8.42;87.17;95635.69;299395;277;63004;-62
2021/01/28 16:44:08;;;;;;;0.60;0.60;;;;;;;8.55;86.40;95635.59;299395;220;63009;-64
2021/01/28 16:49:10;;;;;;;0.60;0.60;;;;;;;8.47;86.83;95633.66;299395;216;63005;-65
2021/01/28 16:54:11;;;;;;;0.60;0.60;;;;;;;8.57;86.30;95644.22;299395;213;63009;-64
2021/01/28 16:59:12;;;;;;;0.60;0.60;;;;;;;8.59;86.27;95652.00;299395;245;63010;-66
2021/01/28 17:04:14;;;;;;;0.60;0.60;;;;;;;8.58;85.52;95667.44;299395;362;63018;-61
2021/01/28 17:09:15;;;;;;;0.60;0.60;;;;;;;8.62;85.71;95676.53;299395;286;63011;-64
2021/01/28 17:14:17;;;;;;;0.60;0.60;;;;;;;8.66;84.81;95680.19;299395;214;63009;-62
2021/01/28 17:19:18;;;;;;;0.60;0.60;;;;;;;8.80;84.10;95684.72;299395;211;63005;-63
2021/01/28 17:24:19;;;;;;;0.60;0.60;;;;;;;8.72;84.40;95697.88;299395;301;63008;-69
2021/01/28 17:29:20;;;;;;;0.60;0.60;;;;;;;8.74;84.56;95689.44;299395;331;63004;-64
2021/01/28 17:34:21;;;;;;;0.60;0.60;;;;;;;8.68;84.72;95694.19;299395;216;63009;-62
2021/01/28 17:39:23;;;;;;;0.60;0.60;;;;;;;8.72;84.65;95706.00;299395;208;63004;-64
2021/01/28 17:44:25;;;;;;;0.60;0.60;;;;;;;8.81;83.85;95703.34;299395;244;63009;-60
2021/01/28 17:49:26;;;;;;;0.60;0.60;;;;;;;8.76;84.39;95710.78;299395;293;63009;-69
2021/01/28 17:54:27;;;;;;;0.60;0.60;;;;;;;8.80;83.55;95717.97;299395;223;63008;-61
2021/01/28 17:59:28;;;;;;;0.60;0.60;;;;;;;8.93;82.28;95716.28;299394;241;64004;-66
2021/01/28 18:04:29;;;;;;;0.60;0.60;;;;;;;8.97;81.81;95744.34;299395;203;63009;-67
2021/01/28 18:09:30;;;;;;;0.60;0.60;;;;;;;9.03;81.38;95732.25;299395;263;63004;-60
2021/01/28 18:14:34;;;;;;;0.60;0.60;;;;;;;8.92;81.85;95736.34;299395;243;63009;-60
2021/01/28 18:19:36;;;;;;;0.60;0.60;;;;;;;9.08;81.00;95740.22;299417;223;63005;-62
2021/01/28 18:24:36;;;;;;;0.70;0.70;;;;;;;9.06;80.96;95759.47;299395;250;63009;-62
2021/01/28 18:29:38;;;;;;;0.60;0.60;;;;;;;9.04;80.44;95745.47;299395;228;63008;-65
2021/01/28 18:34:41;;;;;;;0.60;0.60;;;;;;;9.03;80.67;95760.09;299395;243;63009;-61
2021/01/28 18:39:42;;;;;;;0.60;0.60;;;;;;;9.02;80.64;95773.94;299395;205;63005;-63
2021/01/28 18:44:45;;;;;;;0.60;0.60;;;;;;;8.97;81.09;95782.22;299395;205;63009;-63
2021/01/28 18:49:46;;;;;;;0.60;0.60;;;;;;;8.93;81.01;95765.78;299395;210;63016;-63
2021/01/28 18:54:47;;;;;;;0.60;0.60;;;;;;;8.87;81.73;95782.44;299395;222;63009;-63
2021/01/28 18:59:48;;;;;;;0.60;0.60;;;;;;;8.86;81.76;95781.66;299394;229;64009;-63
2021/01/28 19:04:49;;;;;;;0.60;0.60;;;;;;;8.79;82.33;95796.72;299395;223;63009;-63
2021/01/28 19:09:51;;;;;;;0.60;0.60;;;;;;;8.79;82.41;95785.91;299395;213;63005;-68
2021/01/28 19:14:52;;;;;;;0.60;0.60;;;;;;;8.81;82.46;95794.50;299395;204;63009;-68
2021/01/28 19:19:53;;;;;;;0.60;0.60;;;;;;;8.80;81.95;95798.31;299395;247;63005;-65
2021/01/28 19:24:57;;;;;;;0.60;0.60;;;;;;;8.83;81.97;95806.63;299395;286;63009;-63
2021/01/28 19:30:02;;;;;;;0.60;0.60;;;;;;;8.68;82.65;95796.94;299417;257;63004;-63
2021/01/28 19:35:04;;;;;;;0.60;0.60;;;;;;;8.74;81.85;95817.37;299395;322;63009;-63
2021/01/28 19:40:07;;;;;;;0.60;0.60;;;;;;;8.84;81.66;95815.53;299395;218;63005;-72
2021/01/28 19:45:11;;;;;;;0.60;0.60;;;;;;;8.81;81.70;95819.66;299396;215;63009;-65
2021/01/28 19:50:22;;;;;;;0.60;0.60;;;;;;;8.92;80.60;95833.72;299396;199;63005;-66
2021/01/28 19:55:24;;;;;;;0.60;0.60;;;;;;;8.88;81.12;95833.53;299396;247;63009;-63
2021/01/28 20:00:28;;;;;;;0.60;0.60;;;;;;;8.74;81.87;95846.31;299396;210;63004;-61
2021/01/28 20:05:31;;;;;;;0.60;0.60;;;;;;;8.66;82.41;95845.13;299418;207;63009;-63
2021/01/28 20:10:42;;;;;;;0.60;0.60;;;;;;;8.73;82.02;95842.81;299396;211;63005;-66
2021/01/28 20:15:45;;;;;;;0.60;0.60;;;;;;;8.53;82.66;95848.69;299396;215;63008;-62
2021/01/28 20:20:47;;;;;;;0.60;0.60;;;;;;;8.73;81.48;95831.19;299396;273;63004;-65
2021/01/28 20:25:49;;;;;;;0.60;0.60;;;;;;;8.82;80.66;95842.09;299397;264;63009;-65
2021/01/28 20:30:53;;;;;;;0.60;0.60;;;;;;;8.96;79.56;95835.53;299397;202;63004;-62
2021/01/28 20:35:55;;;;;;;0.60;0.60;;;;;;;8.81;80.52;95848.59;299419;220;63009;-61
2021/01/28 20:40:56;;;;;;;0.60;0.60;;;;;;;8.79;80.24;95829.16;299396;220;63005;-64
2021/01/28 20:45:57;;;;;;;0.60;0.60;;;;;;;8.81;79.98;95835.88;299396;265;63009;-65
2021/01/28 20:50:58;;;;;;;0.60;0.60;;;;;;;8.73;80.08;95836.59;299396;197;63004;-63
2021/01/28 20:55:59;;;;;;;0.60;0.60;;;;;;;8.71;80.06;95839.59;299396;266;63009;-67
2021/01/28 21:01:00;;;;;;;0.60;0.60;;;;;;;8.68;80.34;95832.09;299396;213;63005;-66
2021/01/28 21:06:01;;;;;;;0.60;0.60;;;;;;;8.59;80.34;95847.47;299396;244;63009;-65
2021/01/28 21:11:03;;;;;;;0.60;0.60;;;;;;;8.67;80.16;95841.31;299396;204;63005;-63
2021/01/28 21:16:08;;;;;;;0.60;0.60;;;;;;;8.41;81.06;95856.53;299396;208;63009;-67
2021/01/28 21:21:09;;;;;;;;;;;;;;;8.32;81.60;95861.00;299997;983;5000;-67
2021/01/28 21:26:10;;;;;;;0.60;0.60;;;;;;;8.38;81.08;95852.53;299401;202;63005;-64
2021/01/28 21:31:12;;;;;;;0.60;0.60;;;;;;;8.26;81.42;95854.94;299395;215;63021;-69
2021/01/28 21:36:15;;;;;;;0.60;0.60;;;;;;;8.10;82.06;95850.16;299395;196;63004;-65
2021/01/28 21:41:17;;;;;;;0.60;0.60;;;;;;;7.94;82.42;95846.97;299395;218;63009;-66
2021/01/28 21:46:18;;;;;;;0.60;0.60;;;;;;;7.70;83.97;95847.16;299395;204;63005;-62
2021/01/28 21:51:19;;;;;;;0.60;0.60;;;;;;;7.57;84.21;95834.47;299395;210;63009;-67
2021/01/28 21:56:21;;;;;;;0.60;0.60;;;;;;;7.71;83.78;95837.97;299395;214;63005;-64
2021/01/28 22:01:22;;;;;;;0.60;0.60;;;;;;;7.75;82.92;95838.97;299395;221;63009;-65
2021/01/28 22:06:23;;;;;;;0.60;0.60;;;;;;;7.80;82.52;95840.75;299395;199;63004;-63
2021/01/28 22:11:24;;;;;;;0.60;0.60;;;;;;;7.67;83.04;95837.75;299395;236;63009;-62
2021/01/28 22:16:26;;;;;;;0.60;0.60;;;;;;;7.87;82.42;95836.56;299395;229;63005;-69
2021/01/28 22:21:27;;;;;;;0.60;0.60;;;;;;;8.01;81.24;95842.75;299395;228;63009;-63
2021/01/28 22:26:28;;;;;;;0.60;0.60;;;;;;;7.89;82.28;95844.38;299395;217;63004;-65
2021/01/28 22:31:30;;;;;;;0.80;0.80;;;;;;;8.01;81.35;95845.44;299395;255;63019;-64
2021/01/28 22:36:31;;;;;;;0.60;0.60;;;;;;;7.96;81.00;95834.78;299394;196;64008;-65
2021/01/28 22:41:34;;;;;;;0.50;0.50;;;;;;;7.99;80.87;95842.25;299395;232;63009;-62
2021/01/28 22:46:35;;;;;;;0.60;0.60;;;;;;;7.93;81.14;95840.78;299395;335;63005;-64
2021/01/28 22:51:36;;;;;;;0.60;0.60;;;;;;;7.89;80.96;95839.78;299395;243;63008;-65
2021/01/28 22:56:37;;;;;;;0.60;0.60;;;;;;;7.91;80.96;95842.16;299395;315;63004;-63
2021/01/28 23:01:38;;;;;;;0.60;0.60;;;;;;;7.98;79.68;95837.94;299395;209;63009;-65
2021/01/28 23:06:39;;;;;;;0.60;0.60;;;;;;;7.97;79.73;95844.44;299395;239;63004;-63
2021/01/28 23:11:40;;;;;;;0.60;0.60;;;;;;;7.99;79.94;95839.53;299395;275;63009;-64
2021/01/28 23:16:44;;;;;;;0.60;0.60;;;;;;;7.94;79.35;95828.88;299395;236;63005;-64
2021/01/28 23:21:48;;;;;;;0.70;0.70;;;;;;;7.96;79.62;95823.97;299417;204;63009;-61
2021/01/28 23:26:51;;;;;;;0.60;0.60;;;;;;;8.08;78.55;95823.44;299417;223;63004;-63
2021/01/28 23:31:53;;;;;;;0.60;0.60;;;;;;;7.94;79.75;95814.56;299395;222;63009;-62
2021/01/28 23:36:54;;;;;;;0.60;0.60;;;;;;;7.75;81.06;95811.97;299395;218;63005;-66
2021/01/28 23:41:55;;;;;;;0.60;0.60;;;;;;;7.53;82.10;95803.78;299395;223;63009;-65
2021/01/28 23:46:56;;;;;;;0.60;0.60;;;;;;;7.32;83.18;95798.75;299395;218;63005;-63
2021/01/28 23:51:58;;;;;;;0.60;0.60;;;;;;;7.23;83.74;95791.66;299395;197;63009;-67
2021/01/28 23:56:58;;;;;;;0.60;0.60;;;;;;;7.19;83.98;95791.44;299395;204;63004;-66
